Time;durP1;ratioP1;P1;durP2;ratioP2;P2;SDS_P1;SDS_P2;PMS_P1;PMS_P2;Temp;Humidity;BMP_temperature;BMP_pressure;BME280_temperature;BME280_humidity;BME280_pressure;Samples;Min_cycle;Max_cycle;Signal;HPM_P1;HPM_P2
2023/08/07 00:01:13;;;;;;;3.53;2.50;;;13.20;1.00;;;;;;5008221;28;20285;-74
2023/08/07 00:03:38;;;;;;;7.03;2.43;;;13.20;1.00;;;;;;5010803;28;20183;-74
2023/08/07 00:06:04;;;;;;;4.83;2.57;;;13.20;1.00;;;;;;5007960;28;20233;-74
2023/08/07 00:08:31;;;;;;;10.60;3.13;;;13.20;1.00;;;;;;5009903;28;20210;-74
2023/08/07 00:11:09;;;;;;;8.23;2.47;;;13.20;1.00;;;;;;5009053;28;20203;-75
2023/08/07 00:13:35;;;;;;;5.40;2.77;;;13.10;1.00;;;;;;5021166;28;20572;-74
2023/08/07 00:16:00;;;;;;;6.93;2.60;;;13.10;1.00;;;;;;5009341;28;20453;-76
2023/08/07 00:18:26;;;;;;;7.67;2.57;;;13.10;1.00;;;;;;5009274;28;20213;-75
2023/08/07 00:20:51;;;;;;;9.50;2.60;;;13.10;1.00;;;;;;5010163;28;20210;-74
2023/08/07 00:23:17;;;;;;;7.13;2.40;;;13.10;1.00;;;;;;5010084;28;20653;-74
2023/08/07 00:25:42;;;;;;;8.47;2.30;;;13.00;1.00;;;;;;5008139;28;20233;-74
2023/08/07 00:28:08;;;;;;;9.70;2.97;;;13.00;1.00;;;;;;5008580;28;20183;-74
2023/08/07 00:30:33;;;;;;;28.50;3.00;;;12.90;1.00;;;;;;5010039;28;20564;-74
2023/08/07 00:32:59;;;;;;;5.90;2.43;;;;;;;;;;5009030;28;20167;-74
2023/08/07 00:35:24;;;;;;;5.10;2.33;;;13.00;1.00;;;;;;5008503;28;20268;-73
2023/08/07 00:37:50;;;;;;;7.73;2.67;;;13.00;1.00;;;;;;5004887;28;20434;-74
2023/08/07 00:40:17;;;;;;;3.77;2.20;;;13.00;1.00;;;;;;5010610;28;20183;-74
2023/08/07 00:42:43;;;;;;;4.90;2.00;;;13.00;1.00;;;;;;5009198;28;20719;-74
2023/08/07 00:45:09;;;;;;;5.70;2.70;;;13.00;1.00;;;;;;5009874;28;20453;-75
2023/08/07 00:47:34;;;;;;;3.90;2.23;;;13.00;1.00;;;;;;5009276;28;20236;-74
2023/08/07 00:50:02;;;;;;;5.90;3.07;;;13.00;1.00;;;;;;5009838;28;20429;-75
2023/08/07 00:52:27;;;;;;;5.10;2.20;;;13.00;1.00;;;;;;5008533;28;20217;-74
2023/08/07 00:54:53;;;;;;;4.43;2.37;;;12.90;1.00;;;;;;5008194;28;20425;-75
2023/08/07 00:57:22;;;;;;;4.10;2.47;;;12.90;1.00;;;;;;5010200;28;20174;-73
2023/08/07 00:59:48;;;;;;;9.10;2.40;;;12.90;1.00;;;;;;5009895;28;20190;-74
2023/08/07 01:02:14;;;;;;;6.93;3.00;;;12.90;1.00;;;;;;5009557;28;21121;-74
2023/08/07 01:04:40;;;;;;;6.57;2.70;;;12.90;1.00;;;;;;5009003;28;20441;-74
2023/08/07 01:07:06;;;;;;;4.00;2.00;;;12.90;1.00;;;;;;5008743;28;21101;-74
2023/08/07 01:09:32;;;;;;;4.97;2.90;;;12.80;1.00;;;;;;5009689;28;20178;-74
2023/08/07 01:12:18;;;;;;;12.07;2.70;;;12.80;1.00;;;;;;5011489;28;20809;-74
2023/08/07 01:14:56;;;;;;;6.30;2.13;;;12.80;1.00;;;;;;5009733;28;20182;-74
2023/08/07 01:17:23;;;;;;;7.70;2.10;;;12.80;1.00;;;;;;5002885;28;20448;-75
2023/08/07 01:19:53;;;;;;;3.50;2.30;;;12.80;1.00;;;;;;5010044;28;20468;-74
2023/08/07 01:22:19;;;;;;;11.30;2.33;;;12.80;1.00;;;;;;5010266;28;20847;-74
2023/08/07 01:24:47;;;;;;;6.03;2.30;;;12.90;1.00;;;;;;5010131;28;20426;-74
2023/08/07 01:27:18;;;;;;;7.07;2.50;;;12.90;1.00;;;;;;5010616;28;20405;-74
2023/08/07 01:29:57;;;;;;;5.03;2.87;;;12.90;1.00;;;;;;5009801;28;20440;-75
2023/08/07 01:32:47;;;;;;;8.47;2.30;;;13.00;1.00;;;;;;5005842;28;20441;-74
2023/08/07 01:35:14;;;;;;;3.87;2.07;;;13.00;1.00;;;;;;5009612;28;20406;-74
2023/08/07 01:37:44;;;;;;;6.97;2.40;;;13.00;1.00;;;;;;5007867;28;20434;-75
2023/08/07 01:40:12;;;;;;;5.10;2.20;;;13.10;1.00;;;;;;5009142;28;20440;-74
2023/08/07 01:42:38;;;;;;;4.53;2.00;;;13.10;1.00;;;;;;5010611;28;20444;-75
2023/08/07 01:45:05;;;;;;;3.70;2.43;;;13.10;1.00;;;;;;5008778;28;20482;-75
2023/08/07 01:47:30;;;;;;;5.50;2.40;;;13.10;1.00;;;;;;5009885;28;20919;-76
2023/08/07 01:49:56;;;;;;;4.57;2.30;;;13.10;1.00;;;;;;5010001;28;20433;-75
2023/08/07 01:52:21;;;;;;;4.27;2.17;;;13.20;1.00;;;;;;5009528;28;20203;-75
2023/08/07 01:54:47;;;;;;;4.93;2.30;;;13.20;1.00;;;;;;5010346;28;20182;-75
2023/08/07 01:57:13;;;;;;;7.10;2.43;;;13.20;1.00;;;;;;5010150;28;20190;-76
2023/08/07 01:59:38;;;;;;;6.63;2.43;;;13.20;1.00;;;;;;5009172;28;20190;-75
2023/08/07 02:02:04;;;;;;;7.03;2.27;;;13.30;1.00;;;;;;5008918;28;20572;-74
2023/08/07 02:04:29;;;;;;;3.60;1.97;;;13.30;1.00;;;;;;5010509;28;20181;-75
2023/08/07 02:06:55;;;;;;;9.87;2.10;;;13.30;1.00;;;;;;5008725;28;20217;-74
2023/08/07 02:09:21;;;;;;;7.27;3.23;;;13.30;1.00;;;;;;5007717;28;20183;-73
2023/08/07 02:11:46;;;;;;;6.73;2.20;;;13.40;1.00;;;;;;5010190;28;20206;-75
2023/08/07 02:14:12;;;;;;;6.47;3.10;;;13.40;1.00;;;;;;5009768;28;20847;-75
2023/08/07 02:16:37;;;;;;;9.87;2.70;;;13.40;1.00;;;;;;5008054;28;20190;-75
2023/08/07 02:19:03;;;;;;;6.70;2.30;;;13.40;1.00;;;;;;5008496;28;20183;-75
2023/08/07 02:21:28;;;;;;;4.83;2.47;;;13.50;1.00;;;;;;5009114;28;20276;-75
2023/08/07 02:23:54;;;;;;;3.30;2.00;;;13.50;1.00;;;;;;5009927;28;20190;-75
2023/08/07 02:26:19;;;;;;;6.93;2.30;;;13.50;1.00;;;;;;5008838;28;20198;-75
2023/08/07 02:28:45;;;;;;;3.70;2.10;;;13.50;1.00;;;;;;5009717;28;20236;-75
2023/08/07 02:31:10;;;;;;;6.10;2.30;;;13.60;1.00;;;;;;5007901;28;20635;-75
2023/08/07 02:33:36;;;;;;;4.83;2.20;;;13.60;1.00;;;;;;5008816;28;20669;-75
2023/08/07 02:36:01;;;;;;;8.47;2.53;;;13.60;1.00;;;;;;5008152;28;20182;-75
2023/08/07 02:38:27;;;;;;;4.40;2.40;;;13.60;1.00;;;;;;5007897;28;20218;-76
2023/08/07 02:40:52;;;;;;;9.97;2.60;;;13.60;1.00;;;;;;5007644;28;20841;-75
2023/08/07 02:43:18;;;;;;;4.47;2.07;;;13.70;1.00;;;;;;5008484;28;20178;-75
2023/08/07 02:45:43;;;;;;;5.57;2.30;;;13.70;1.00;;;;;;5009255;28;20723;-75
2023/08/07 02:48:08;;;;;;;4.40;2.47;;;13.70;1.00;;;;;;5009118;28;20214;-75
2023/08/07 02:50:35;;;;;;;3.73;2.33;;;13.70;1.00;;;;;;5009680;28;20182;-75
2023/08/07 02:53:01;;;;;;;6.80;2.43;;;13.70;1.00;;;;;;5009223;28;20669;-75
2023/08/07 02:55:27;;;;;;;4.90;1.90;;;13.70;1.00;;;;;;5009725;28;20441;-74
2023/08/07 02:57:53;;;;;;;7.10;2.27;;;13.70;1.00;;;;;;5009665;28;20940;-75
2023/08/07 03:00:18;;;;;;;4.60;2.20;;;13.80;1.00;;;;;;5006517;28;20193;-75
2023/08/07 03:02:44;;;;;;;5.13;2.10;;;13.80;1.00;;;;;;5008356;28;20198;-75
2023/08/07 03:05:09;;;;;;;8.83;2.43;;;13.80;1.00;;;;;;5008336;28;20198;-75
2023/08/07 03:07:35;;;;;;;14.50;2.67;;;13.80;1.00;;;;;;5006114;28;20190;-75
2023/08/07 03:10:00;;;;;;;5.70;2.50;;;13.80;1.00;;;;;;5008415;28;20178;-75
2023/08/07 03:12:26;;;;;;;7.87;2.43;;;13.80;1.00;;;;;;5007299;28;20696;-76
2023/08/07 03:14:52;;;;;;;5.50;2.30;;;13.80;1.00;;;;;;5008501;28;20178;-75
2023/08/07 03:17:17;;;;;;;4.60;2.17;;;13.80;1.00;;;;;;5008289;28;20649;-75
2023/08/07 03:19:43;;;;;;;4.20;2.03;;;13.80;1.00;;;;;;5007644;28;20179;-76
2023/08/07 03:22:09;;;;;;;4.53;2.00;;;13.80;1.00;;;;;;5007818;28;20198;-76
2023/08/07 03:24:34;;;;;;;4.77;1.77;;;13.80;1.00;;;;;;5008191;28;20185;-75
2023/08/07 03:27:00;;;;;;;6.90;2.17;;;13.80;1.00;;;;;;5005990;28;20700;-75
2023/08/07 03:29:25;;;;;;;6.40;2.77;;;13.80;1.00;;;;;;5006684;28;20210;-75
2023/08/07 03:31:51;;;;;;;7.20;2.40;;;13.80;1.00;;;;;;5007254;28;20205;-75
2023/08/07 03:34:16;;;;;;;6.77;2.23;;;13.80;1.00;;;;;;5007083;28;20187;-75
2023/08/07 03:36:42;;;;;;;3.93;2.13;;;13.80;1.00;;;;;;5007795;28;20195;-75
2023/08/07 03:39:07;;;;;;;17.63;2.67;;;13.80;1.00;;;;;;5006228;28;20186;-76
2023/08/07 03:41:33;;;;;;;9.97;2.20;;;13.80;1.00;;;;;;5006299;28;20256;-75
2023/08/07 03:43:59;;;;;;;3.90;2.20;;;13.80;1.00;;;;;;5005908;28;20209;-75
2023/08/07 03:46:25;;;;;;;5.93;2.00;;;13.80;1.00;;;;;;5005438;28;20496;-75
2023/08/07 03:48:50;;;;;;;3.60;2.23;;;13.70;1.00;;;;;;5007926;28;20269;-75
2023/08/07 03:51:16;;;;;;;4.57;2.30;;;13.70;1.00;;;;;;5006454;28;20194;-75
2023/08/07 03:53:42;;;;;;;6.17;2.20;;;13.70;1.00;;;;;;5006281;28;20170;-75
2023/08/07 03:56:08;;;;;;;7.90;2.70;;;13.60;1.00;;;;;;5009209;28;20486;-76
2023/08/07 03:58:33;;;;;;;4.07;2.90;;;13.70;1.00;;;;;;5009172;28;20186;-75
2023/08/07 04:00:59;;;;;;;8.53;2.63;;;13.60;1.00;;;;;;5009857;28;20692;-75
2023/08/07 04:03:24;;;;;;;10.00;2.60;;;13.60;1.00;;;;;;5003577;28;20190;-76
2023/08/07 04:05:54;;;;;;;6.73;2.87;;;13.60;1.00;;;;;;5010042;28;20294;-75
2023/08/07 04:08:20;;;;;;;8.10;2.37;;;13.60;1.00;;;;;;5006421;28;20178;-76
2023/08/07 04:11:00;;;;;;;8.73;2.67;;;13.60;1.00;;;;;;5011151;28;20503;-76
2023/08/07 04:13:27;;;;;;;2.87;2.07;;;13.60;1.00;;;;;;5004679;28;20854;-76
2023/08/07 04:15:52;;;;;;;6.83;2.87;;;13.70;1.00;;;;;;5007709;28;20442;-77
2023/08/07 04:18:18;;;;;;;6.93;2.20;;;13.70;1.00;;;;;;5008390;28;20429;-76
2023/08/07 04:20:58;;;;;;;7.03;3.07;;;13.70;1.00;;;;;;5009289;28;20193;-76
2023/08/07 04:23:24;;;;;;;6.67;2.57;;;13.70;1.00;;;;;;5011350;28;20186;-76
2023/08/07 04:25:50;;;;;;;4.20;2.50;;;13.60;1.00;;;;;;5009648;28;20479;-76
2023/08/07 04:28:16;;;;;;;7.33;2.40;;;13.60;1.00;;;;;;5008813;28;20225;-77
2023/08/07 04:30:43;;;;;;;6.77;2.50;;;13.60;1.00;;;;;;5008790;28;20442;-76
2023/08/07 04:33:08;;;;;;;7.80;2.83;;;13.60;1.00;;;;;;5007903;28;20193;-76
2023/08/07 04:35:34;;;;;;;5.80;2.63;;;13.60;1.00;;;;;;4996040;28;20449;-76
2023/08/07 04:38:01;;;;;;;6.60;2.60;;;13.60;1.00;;;;;;4997198;28;20541;-76
2023/08/07 04:40:26;;;;;;;7.17;2.37;;;13.60;1.00;;;;;;5006622;28;20221;-77
2023/08/07 04:42:52;;;;;;;5.70;2.70;;;13.60;1.00;;;;;;5006632;28;20453;-76
2023/08/07 04:45:17;;;;;;;11.00;2.60;;;13.60;1.00;;;;;;5005317;28;20790;-76
2023/08/07 04:47:43;;;;;;;4.57;2.50;;;13.50;1.00;;;;;;5007206;28;20244;-75
2023/08/07 04:50:09;;;;;;;6.77;2.53;;;13.50;1.00;;;;;;5005921;28;20174;-77
2023/08/07 04:52:35;;;;;;;4.20;2.50;;;13.60;1.00;;;;;;5010796;28;20681;-76
2023/08/07 04:55:01;;;;;;;5.50;2.90;;;13.60;1.00;;;;;;5012044;28;20512;-76
2023/08/07 04:57:26;;;;;;;7.03;2.80;;;13.70;1.00;;;;;;5011245;28;20175;-75
2023/08/07 04:59:52;;;;;;;5.17;2.20;;;13.70;1.00;;;;;;5012638;28;20441;-76
2023/08/07 05:02:18;;;;;;;8.47;2.63;;;13.70;1.00;;;;;;5006182;28;20701;-76
2023/08/07 05:04:44;;;;;;;4.97;2.33;;;13.60;1.00;;;;;;5010268;28;20479;-75
2023/08/07 05:07:09;;;;;;;5.80;2.40;;;13.60;1.00;;;;;;5005870;28;20434;-78
2023/08/07 05:09:35;;;;;;;9.73;2.97;;;13.60;1.00;;;;;;5007389;28;20244;-75
2023/08/07 05:12:01;;;;;;;6.70;2.50;;;13.60;1.00;;;;;;5007296;28;20293;-75
2023/08/07 05:14:27;;;;;;;5.20;2.90;;;13.50;1.00;;;;;;5011238;28;20738;-75
2023/08/07 05:16:52;;;;;;;10.80;2.90;;;13.60;1.00;;;;;;5011390;28;20718;-75
2023/08/07 05:19:18;;;;;;;3.87;2.73;;;13.60;1.00;;;;;;5012341;28;20675;-75
2023/08/07 05:21:43;;;;;;;6.00;2.53;;;13.60;1.00;;;;;;5011134;28;20197;-75
2023/08/07 05:24:09;;;;;;;10.87;2.53;;;13.60;1.00;;;;;;5011264;28;20178;-75
2023/08/07 05:26:34;;;;;;;5.47;2.67;;;13.70;1.00;;;;;;5012093;28;20198;-75
2023/08/07 05:29:00;;;;;;;5.83;2.43;;;13.80;1.00;;;;;;5012208;28;20178;-75
2023/08/07 05:31:25;;;;;;;4.07;2.70;;;13.80;1.00;;;;;;5012002;28;20187;-74
2023/08/07 05:33:51;;;;;;;5.43;2.50;;;13.80;1.00;;;;;;5012834;28;20254;-75
2023/08/07 05:36:16;;;;;;;9.60;3.17;;;13.80;1.00;;;;;;5012262;28;20175;-75
2023/08/07 05:38:42;;;;;;;7.37;2.93;;;13.90;1.00;;;;;;5012008;28;20201;-75
2023/08/07 05:41:08;;;;;;;4.63;2.97;;;14.00;1.00;;;;;;5011999;28;20229;-75
2023/08/07 05:43:34;;;;;;;5.33;3.40;;;14.10;1.00;;;;;;5010608;28;20617;-75
2023/08/07 05:45:59;;;;;;;6.27;2.83;;;14.20;1.00;;;;;;5010588;28;20555;-75
2023/08/07 05:48:25;;;;;;;6.57;3.03;;;14.20;1.00;;;;;;5010521;28;20217;-75
2023/08/07 05:50:52;;;;;;;3.13;2.60;;;14.10;1.00;;;;;;5012035;28;20669;-74
2023/08/07 05:53:17;;;;;;;4.37;2.60;;;14.10;1.00;;;;;;5010574;28;20496;-74
2023/08/07 05:55:43;;;;;;;9.20;2.67;;;14.20;1.00;;;;;;5011966;28;20521;-75
2023/08/07 05:58:08;;;;;;;8.90;2.80;;;14.20;1.00;;;;;;5011710;28;20297;-76
2023/08/07 06:00:34;;;;;;;6.80;2.60;;;14.30;1.00;;;;;;5011409;28;20197;-75
2023/08/07 06:03:00;;;;;;;6.93;2.90;;;14.30;1.00;;;;;;5011843;28;20244;-75
2023/08/07 06:05:25;;;;;;;9.30;2.70;;;14.40;1.00;;;;;;5011554;28;20468;-75
2023/08/07 06:07:51;;;;;;;5.60;3.07;;;14.40;1.00;;;;;;5009995;28;20183;-76
2023/08/07 06:10:16;;;;;;;8.63;3.10;;;14.40;1.00;;;;;;5011572;28;20697;-75
2023/08/07 06:12:42;;;;;;;8.13;3.23;;;14.40;1.00;;;;;;5011586;28;20213;-75
2023/08/07 06:15:08;;;;;;;6.67;3.03;;;14.40;1.00;;;;;;5011681;28;20187;-75
2023/08/07 06:17:34;;;;;;;9.10;2.63;;;14.40;1.00;;;;;;5011060;28;20516;-75
2023/08/07 06:19:59;;;;;;;6.47;2.43;;;14.30;1.00;;;;;;5012085;28;20433;-75
2023/08/07 06:22:25;;;;;;;6.57;2.33;;;14.30;1.00;;;;;;5011167;28;20195;-75
2023/08/07 06:24:51;;;;;;;8.63;2.80;;;14.30;1.00;;;;;;5011417;28;20186;-75
2023/08/07 06:27:16;;;;;;;6.70;2.67;;;14.40;1.00;;;;;;5010206;28;20523;-75
2023/08/07 06:29:42;;;;;;;3.57;2.20;;;14.50;1.00;;;;;;5011535;28;20182;-75
2023/08/07 06:32:07;;;;;;;8.63;2.30;;;14.50;1.00;;;;;;5009911;28;20190;-76
2023/08/07 06:34:34;;;;;;;12.10;5.10;;;14.50;1.00;;;;;;5011564;28;20578;-76
2023/08/07 06:37:00;;;;;;;15.60;9.57;;;14.70;1.00;;;;;;5011430;28;20699;-75
2023/08/07 06:39:25;;;;;;;15.50;9.40;;;14.80;1.00;;;;;;5009656;28;20417;-75
2023/08/07 06:41:51;;;;;;;5.47;3.80;;;14.80;1.00;;;;;;5011275;28;20289;-75
2023/08/07 06:44:16;;;;;;;6.10;2.93;;;14.80;1.00;;;;;;5011467;28;20548;-75
2023/08/07 06:46:42;;;;;;;9.60;2.67;;;14.90;1.00;;;;;;5009591;28;20197;-75
2023/08/07 06:49:07;;;;;;;4.30;2.70;;;15.00;1.00;;;;;;5011040;28;20232;-75
2023/08/07 06:51:33;;;;;;;3.50;2.30;;;15.00;1.00;;;;;;5011122;28;20186;-75
2023/08/07 06:53:58;;;;;;;11.73;3.13;;;15.00;1.00;;;;;;5011264;28;20202;-76
2023/08/07 06:56:24;;;;;;;7.97;2.73;;;15.10;1.00;;;;;;5011081;28;20217;-75
2023/08/07 06:58:49;;;;;;;4.73;2.23;;;15.10;1.00;;;;;;5011113;28;20187;-75
2023/08/07 07:01:15;;;;;;;8.47;3.17;;;15.00;1.00;;;;;;5011032;28;20190;-75
2023/08/07 07:03:40;;;;;;;4.27;3.10;;;15.00;1.00;;;;;;5010910;28;20191;-75
2023/08/07 07:06:06;;;;;;;3.83;2.40;;;15.10;1.00;;;;;;5009498;28;20573;-75
2023/08/07 07:08:31;;;;;;;4.00;2.40;;;15.10;1.00;;;;;;5010505;28;20179;-76
2023/08/07 07:10:58;;;;;;;3.63;2.60;;;15.10;1.00;;;;;;5009396;28;20297;-76
2023/08/07 07:13:23;;;;;;;3.93;2.57;;;15.20;1.00;;;;;;5009508;28;20171;-74
2023/08/07 07:15:55;;;;;;;5.50;2.53;;;15.10;1.00;;;;;;5009697;28;20417;-75
2023/08/07 07:18:21;;;;;;;5.20;2.50;;;15.10;1.00;;;;;;5009805;28;20183;-75
2023/08/07 07:20:47;;;;;;;6.60;2.93;;;15.10;1.00;;;;;;5010719;28;20425;-75
2023/08/07 07:23:12;;;;;;;4.40;2.10;;;15.10;1.00;;;;;;5011002;28;20620;-75
2023/08/07 07:25:38;;;;;;;5.37;2.73;;;15.20;1.00;;;;;;5010480;28;20199;-76
2023/08/07 07:28:04;;;;;;;4.40;2.33;;;15.20;1.00;;;;;;5011037;28;20179;-75
2023/08/07 07:30:29;;;;;;;4.70;2.63;;;15.10;1.00;;;;;;5011416;28;20265;-74
2023/08/07 07:32:55;;;;;;;4.13;2.30;;;15.10;1.00;;;;;;5014786;28;20268;-76
2023/08/07 07:35:20;;;;;;;4.97;2.60;;;15.10;1.00;;;;;;5015331;28;20181;-76
2023/08/07 07:37:46;;;;;;;7.40;2.40;;;15.10;1.00;;;;;;5014110;28;20206;-75
2023/08/07 07:40:11;;;;;;;3.60;2.57;;;15.10;1.00;;;;;;5014620;28;20190;-75
2023/08/07 07:42:37;;;;;;;2.80;2.10;;;15.10;1.00;;;;;;5014251;28;20198;-75
2023/08/07 07:45:03;;;;;;;5.03;1.70;;;15.10;1.00;;;;;;5012524;28;20179;-74
2023/08/07 07:47:29;;;;;;;7.90;2.17;;;15.00;1.00;;;;;;5013848;28;20549;-75
2023/08/07 07:50:08;;;;;;;8.93;2.67;;;15.00;1.00;;;;;;5014310;28;20417;-74
2023/08/07 07:52:33;;;;;;;5.17;2.60;;;15.00;1.00;;;;;;5014070;28;20248;-75
2023/08/07 07:54:59;;;;;;;3.53;2.40;;;15.00;1.00;;;;;;5013010;28;20780;-75
2023/08/07 07:57:26;;;;;;;4.60;2.57;;;14.90;1.00;;;;;;5014019;28;20205;-74
2023/08/07 07:59:51;;;;;;;6.47;2.47;;;14.90;1.00;;;;;;5014142;28;20193;-77
2023/08/07 08:02:17;;;;;;;8.30;2.63;;;14.90;1.00;;;;;;5013933;28;20437;-75
2023/08/07 08:04:42;;;;;;;4.83;2.03;;;14.90;1.00;;;;;;5013876;28;20178;-75
2023/08/07 08:07:08;;;;;;;5.50;2.33;;;14.60;1.00;;;;;;5013566;28;20682;-75
2023/08/07 08:09:34;;;;;;;4.60;2.30;;;14.60;1.00;;;;;;5012192;28;20178;-75
2023/08/07 08:11:59;;;;;;;5.47;2.43;;;14.70;1.00;;;;;;5012393;28;20221;-75
2023/08/07 08:14:25;;;;;;;3.67;2.40;;;14.90;1.00;;;;;;5013950;28;20273;-75
2023/08/07 08:16:50;;;;;;;3.53;2.37;;;15.10;1.00;;;;;;5013157;28;20209;-75
2023/08/07 08:19:16;;;;;;;8.17;2.47;;;15.30;1.00;;;;;;5013492;28;20652;-75
2023/08/07 08:21:42;;;;;;;2.80;1.90;;;15.50;1.00;;;;;;5011886;28;20517;-75
2023/08/07 08:24:08;;;;;;;8.60;2.70;;;15.60;1.00;;;;;;5013422;28;20194;-75
2023/08/07 08:26:33;;;;;;;3.70;2.40;;;15.80;1.00;;;;;;5013134;28;20465;-75
2023/08/07 08:28:59;;;;;;;8.47;2.13;;;16.00;1.00;;;;;;5011866;28;20177;-75
2023/08/07 08:31:24;;;;;;;6.50;2.40;;;16.20;1.00;;;;;;5011680;28;20653;-75
2023/08/07 08:33:50;;;;;;;6.40;2.30;;;16.20;1.00;;;;;;5013052;28;20697;-75
2023/08/07 08:36:15;;;;;;;9.53;2.50;;;16.20;1.00;;;;;;5013178;28;20217;-75
2023/08/07 08:38:41;;;;;;;4.40;2.60;;;;;;;;;;5011352;28;20548;-75
2023/08/07 08:41:09;;;;;;;4.40;2.20;;;16.50;1.00;;;;;;5012345;28;20198;-75
2023/08/07 08:43:38;;;;;;;5.80;2.40;;;16.70;1.00;;;;;;5011663;28;20520;-75
2023/08/07 08:46:08;;;;;;;3.70;2.03;;;16.80;1.00;;;;;;5011448;28;20983;-75
2023/08/07 08:48:38;;;;;;;5.93;2.23;;;17.00;1.00;;;;;;5011332;28;20871;-75
2023/08/07 08:51:04;;;;;;;4.37;2.10;;;17.00;1.00;;;;;;5012812;28;20484;-75
2023/08/07 08:53:32;;;;;;;4.57;2.43;;;17.00;1.00;;;;;;5012798;28;20418;-75
2023/08/07 08:55:57;;;;;;;3.97;2.40;;;17.00;1.00;;;;;;5011494;28;20202;-75
2023/08/07 08:58:23;;;;;;;4.07;2.07;;;16.90;1.00;;;;;;5012741;28;20958;-75
2023/08/07 09:00:50;;;;;;;6.80;2.83;;;17.00;1.00;;;;;;5011320;28;20576;-75
2023/08/07 09:03:18;;;;;;;5.43;2.40;;;17.00;1.00;;;;;;5011470;28;20435;-75
2023/08/07 09:05:44;;;;;;;4.40;2.30;;;17.00;1.00;;;;;;5011799;28;20462;-75
2023/08/07 09:08:11;;;;;;;7.03;2.40;;;17.00;1.00;;;;;;5010926;28;20509;-75
2023/08/07 09:10:37;;;;;;;5.50;2.80;;;17.20;1.00;;;;;;5012147;28;20433;-76
2023/08/07 09:13:07;;;;;;;5.80;2.60;;;17.30;1.00;;;;;;5011277;28;20769;-75
2023/08/07 09:15:33;;;;;;;5.53;2.60;;;17.80;1.00;;;;;;5011000;28;20445;-75
2023/08/07 09:17:59;;;;;;;3.93;2.57;;;17.80;1.00;;;;;;5012561;28;20519;-75
2023/08/07 09:20:25;;;;;;;5.57;2.43;;;18.00;1.00;;;;;;5012640;28;20645;-75
2023/08/07 09:22:51;;;;;;;5.63;2.67;;;18.10;1.00;;;;;;5012310;28;20823;-75
2023/08/07 09:25:30;;;;;;;4.30;2.60;;;18.00;1.00;;;;;;5010995;28;20456;-76
2023/08/07 09:27:59;;;;;;;8.63;2.70;;;18.00;1.00;;;;;;5012235;28;20166;-75
2023/08/07 09:30:29;;;;;;;5.20;2.40;;;19.80;1.00;;;;;;5012416;28;20421;-75
2023/08/07 09:32:58;;;;;;;7.47;2.80;;;17.80;1.00;;;;;;5011005;28;20780;-75
2023/08/07 09:35:23;;;;;;;5.00;2.73;;;17.90;1.00;;;;;;5012439;28;20417;-75
2023/08/07 09:37:49;;;;;;;5.10;2.60;;;17.80;1.00;;;;;;5010761;28;20416;-75
2023/08/07 09:40:16;;;;;;;6.40;2.60;;;17.90;1.00;;;;;;5012455;28;20178;-76
2023/08/07 09:42:42;;;;;;;5.10;2.53;;;18.00;1.00;;;;;;5010737;28;20508;-75
2023/08/07 09:45:25;;;;;;;5.70;2.50;;;18.00;1.00;;;;;;5011151;28;20429;-75
2023/08/07 09:48:02;;;;;;;10.17;2.77;;;17.90;1.00;;;;;;5012144;28;20438;-76
2023/08/07 09:50:28;;;;;;;11.10;3.83;;;;;;;;;;5012364;28;20417;-75
2023/08/07 09:52:57;;;;;;;6.60;2.70;;;17.70;1.00;;;;;;5011217;28;20409;-76
2023/08/07 09:55:24;;;;;;;4.20;2.57;;;18.00;1.00;;;;;;5010932;28;20716;-76
2023/08/07 09:57:50;;;;;;;8.83;2.80;;;18.00;1.00;;;;;;5010528;28;20414;-76
2023/08/07 10:00:16;;;;;;;5.67;2.60;;;18.10;1.00;;;;;;5012194;28;20414;-77
2023/08/07 10:02:42;;;;;;;4.43;2.53;;;18.10;1.00;;;;;;5011749;28;20437;-76
2023/08/07 10:05:09;;;;;;;4.63;2.60;;;18.50;1.00;;;;;;5012001;28;20453;-76
2023/08/07 10:07:37;;;;;;;4.53;2.40;;;18.20;1.00;;;;;;5011435;28;20420;-76
2023/08/07 10:10:03;;;;;;;10.20;2.90;;;18.40;1.00;;;;;;5011990;28;20486;-76
2023/08/07 10:12:29;;;;;;;5.70;2.70;;;18.70;1.00;;;;;;5010348;28;20457;-76
2023/08/07 10:14:55;;;;;;;8.33;3.23;;;18.80;1.00;;;;;;5011666;28;20919;-76
2023/08/07 10:17:24;;;;;;;6.70;2.67;;;19.30;1.00;;;;;;5010515;28;20425;-76
2023/08/07 10:19:51;;;;;;;8.20;2.80;;;19.70;1.00;;;;;;5010519;28;20178;-76
2023/08/07 10:22:18;;;;;;;5.77;2.90;;;19.90;1.00;;;;;;5011822;28;20433;-76
2023/08/07 10:24:49;;;;;;;8.83;2.87;;;20.00;1.00;;;;;;5010555;28;20432;-75
2023/08/07 10:27:18;;;;;;;8.07;3.17;;;19.90;1.00;;;;;;5011882;28;20456;-76
2023/08/07 10:29:46;;;;;;;5.57;2.80;;;19.50;1.00;;;;;;5012119;28;20480;-76
2023/08/07 10:32:12;;;;;;;5.87;2.70;;;19.20;1.00;;;;;;5011468;28;20957;-76
2023/08/07 10:34:38;;;;;;;5.73;3.00;;;19.10;1.00;;;;;;5011771;28;20431;-76
2023/08/07 10:37:07;;;;;;;8.30;2.80;;;19.80;1.00;;;;;;5011417;28;20414;-76
2023/08/07 10:39:33;;;;;;;8.40;3.30;;;19.40;1.00;;;;;;5010181;28;20179;-76
2023/08/07 10:41:59;;;;;;;7.20;2.60;;;19.30;1.00;;;;;;5011199;28;20440;-76
2023/08/07 10:44:26;;;;;;;4.73;2.80;;;18.90;1.00;;;;;;5010167;28;20501;-76
2023/08/07 10:46:55;;;;;;;8.63;3.00;;;19.00;1.00;;;;;;5011119;28;20248;-77
2023/08/07 10:49:37;;;;;;;8.10;3.23;;;18.80;1.00;;;;;;5010077;28;20424;-78
2023/08/07 10:52:03;;;;;;;5.33;3.00;;;18.60;1.00;;;;;;5011125;28;20461;-76
2023/08/07 10:54:29;;;;;;;12.30;3.10;;;18.70;1.00;;;;;;5011419;28;20405;-76
2023/08/07 10:56:55;;;;;;;4.13;2.80;;;18.60;1.00;;;;;;5011164;28;20416;-75
2023/08/07 10:59:21;;;;;;;9.00;3.10;;;18.50;1.00;;;;;;5011513;28;20174;-76
2023/08/07 11:01:52;;;;;;;5.13;2.90;;;18.60;1.00;;;;;;5011092;28;20568;-76
2023/08/07 11:04:18;;;;;;;5.97;3.00;;;18.40;1.00;;;;;;5011955;28;20491;-76
2023/08/07 11:06:47;;;;;;;6.07;2.80;;;18.50;1.00;;;;;;5014811;28;20539;-76
2023/08/07 11:09:12;;;;;;;4.97;2.50;;;18.40;1.00;;;;;;5015601;28;20417;-76
2023/08/07 11:11:43;;;;;;;5.77;3.07;;;18.30;1.00;;;;;;5013944;28;20449;-77
2023/08/07 11:14:11;;;;;;;7.40;3.70;;;18.10;1.00;;;;;;5013696;28;20661;-75
2023/08/07 11:16:37;;;;;;;6.50;3.13;;;18.00;1.00;;;;;;5015230;28;20405;-76
2023/08/07 11:19:03;;;;;;;7.60;2.90;;;18.10;1.00;;;;;;5013829;28;20406;-77
2023/08/07 11:21:30;;;;;;;5.13;2.83;;;20.30;1.00;;;;;;5015260;28;20190;-76
2023/08/07 11:23:56;;;;;;;6.40;2.73;;;17.80;1.00;;;;;;5015220;28;20277;-76
2023/08/07 11:26:21;;;;;;;12.73;3.40;;;17.80;1.00;;;;;;5015276;28;21026;-76
2023/08/07 11:28:47;;;;;;;7.03;2.83;;;17.90;1.00;;;;;;5014910;28;20637;-76
2023/08/07 11:31:13;;;;;;;3.63;2.50;;;18.10;1.00;;;;;;5013699;28;20198;-76
2023/08/07 11:33:40;;;;;;;7.27;2.90;;;18.00;1.00;;;;;;5014938;28;20933;-75
2023/08/07 11:36:11;;;;;;;4.10;3.07;;;17.70;1.00;;;;;;5007796;28;20174;-75
2023/08/07 11:38:39;;;;;;;5.30;3.07;;;17.80;1.00;;;;;;5013508;28;20420;-76
2023/08/07 11:41:06;;;;;;;6.63;3.00;;;17.60;1.00;;;;;;5014605;28;22566;-76
2023/08/07 11:43:33;;;;;;;11.33;3.30;;;17.50;1.00;;;;;;5014766;28;20504;-76
2023/08/07 11:46:03;;;;;;;5.97;3.17;;;17.50;1.00;;;;;;5013302;28;20445;-75
2023/08/07 11:48:30;;;;;;;7.30;3.40;;;17.50;1.00;;;;;;5014801;28;20464;-75
2023/08/07 11:50:58;;;;;;;5.00;3.10;;;17.60;1.00;;;;;;5014350;28;20433;-76
2023/08/07 11:53:31;;;;;;;9.40;3.27;;;17.60;1.00;;;;;;5014608;28;20401;-75
2023/08/07 11:55:59;;;;;;;7.50;3.00;;;17.50;1.00;;;;;;5012826;28;20771;-75
2023/08/07 11:58:27;;;;;;;3.63;2.77;;;17.50;1.00;;;;;;5014917;28;20416;-75
2023/08/07 12:00:53;;;;;;;4.40;2.50;;;17.70;1.00;;;;;;5013973;28;20511;-76
2023/08/07 12:03:29;;;;;;;4.90;3.10;;;18.10;1.00;;;;;;5014359;28;20488;-76
2023/08/07 12:06:01;;;;;;;17.90;11.93;;;18.30;1.00;;;;;;5013713;28;20524;-76
2023/08/07 12:08:38;;;;;;;5.60;3.10;;;18.20;1.00;;;;;;5013011;28;20436;-76
2023/08/07 12:11:05;;;;;;;3.37;2.40;;;18.40;1.00;;;;;;5013796;28;20480;-76
2023/08/07 12:13:35;;;;;;;4.20;2.60;;;18.70;1.00;;;;;;5014311;28;20500;-76
2023/08/07 12:16:01;;;;;;;4.90;3.00;;;18.90;1.00;;;;;;5012918;28;20548;-76
2023/08/07 12:18:27;;;;;;;5.13;2.63;;;19.10;1.00;;;;;;5012532;28;20766;-77
2023/08/07 12:21:00;;;;;;;6.27;2.90;;;19.30;1.00;;;;;;5012164;28;20501;-76
2023/08/07 12:23:26;;;;;;;8.13;3.17;;;19.40;1.00;;;;;;5012620;28;20181;-77
2023/08/07 12:25:52;;;;;;;13.17;3.70;;;19.60;1.00;;;;;;5012285;28;20453;-77
2023/08/07 12:28:18;;;;;;;8.77;4.40;;;19.70;1.00;;;;;;5013997;28;20668;-76
2023/08/07 12:30:47;;;;;;;10.23;3.27;;;19.40;1.00;;;;;;5012364;28;20417;-76
2023/08/07 12:33:13;;;;;;;7.30;3.70;;;19.50;1.00;;;;;;5012071;28;20170;-76
2023/08/07 12:35:40;;;;;;;5.70;2.93;;;19.50;1.00;;;;;;5013581;28;20997;-76
2023/08/07 12:38:06;;;;;;;10.83;3.30;;;19.70;1.00;;;;;;5003891;28;20449;-76
2023/08/07 12:40:32;;;;;;;8.77;2.97;;;20.00;1.00;;;;;;5013995;28;20445;-76
2023/08/07 12:43:00;;;;;;;6.30;2.93;;;20.00;1.00;;;;;;5013335;28;20269;-76
2023/08/07 12:45:26;;;;;;;4.90;2.33;;;20.20;1.00;;;;;;5013619;28;20457;-77
2023/08/07 12:47:51;;;;;;;15.37;3.80;;;20.40;1.00;;;;;;5012022;28;20413;-75
2023/08/07 12:50:17;;;;;;;9.63;3.10;;;20.80;1.00;;;;;;5013502;28;20628;-76
2023/08/07 12:52:43;;;;;;;4.77;2.60;;;21.20;1.00;;;;;;5013128;28;20612;-76
2023/08/07 12:55:09;;;;;;;5.10;2.80;;;21.40;1.00;;;;;;5011601;28;20265;-77